RYR6RR EGSS-LEAM
Flight info
| Callsign | RYR6RR |
|---|---|
| Flight time | 2h 29m |
| Altitude | 37000 |
| Route | NUGBO M183 SILVA Q41 COWLY UT71 VAPID UN859 SOPIL DCT BALAN DCT LMG DCT PIMQO DCT AGN DCT ANETO N860 DOSEK |
| Aircraft | B38M/M-SDE1FGHILORVWXY/HB1 |
Departure
| Time | 2026-04-23 13:58 |
|---|---|
| Airport | London Stansted Airport (EGSS) |
Arrival
| Time | 2026-04-23 16:27 |
|---|---|
| Airport | Almería Airport (LEAM) |
| Time | Latitude | Longitude | Altitude | Speed | Heading |
|---|---|---|---|---|---|
| 2026-04-23 13:24 | 51.88995 | 0.25733 | 345 ft | 0 kts | 43° |
| 2026-04-23 13:35 | 51.88983 | 0.25715 | 357 ft | 2 kts | 43° |
| 2026-04-23 13:35 | 51.88971 | 0.25697 | 346 ft | 2 kts | 44° |
| 2026-04-23 13:36 | 51.88960 | 0.25680 | 345 ft | 1 kts | 44° |
| 2026-04-23 13:36 | 51.88958 | 0.25676 | 353 ft | 0 kts | 43° |
| 2026-04-23 13:41 | 51.88967 | 0.25677 | 353 ft | 4 kts | 355° |
| 2026-04-23 13:41 | 51.89007 | 0.25623 | 344 ft | 10 kts | 313° |
| 2026-04-23 13:41 | 51.89061 | 0.25529 | 348 ft | 13 kts | 313° |
| 2026-04-23 13:42 | 51.89127 | 0.25415 | 347 ft | 15 kts | 313° |
| 2026-04-23 13:42 | 51.89174 | 0.25313 | 348 ft | 9 kts | 279° |
| 2026-04-23 13:42 | 51.89141 | 0.25226 | 346 ft | 11 kts | 222° |
| 2026-04-23 13:42 | 51.89080 | 0.25135 | 345 ft | 13 kts | 223° |
| 2026-04-23 13:43 | 51.89008 | 0.25024 | 345 ft | 16 kts | 223° |
| 2026-04-23 13:43 | 51.88923 | 0.24898 | 345 ft | 17 kts | 222° |
| 2026-04-23 13:43 | 51.88830 | 0.24760 | 346 ft | 19 kts | 223° |
| 2026-04-23 13:43 | 51.88728 | 0.24610 | 351 ft | 21 kts | 223° |
| 2026-04-23 13:44 | 51.88619 | 0.24445 | 346 ft | 23 kts | 223° |
| 2026-04-23 13:44 | 51.88499 | 0.24262 | 353 ft | 25 kts | 223° |
| 2026-04-23 13:44 | 51.88368 | 0.24066 | 351 ft | 24 kts | 223° |
| 2026-04-23 13:44 | 51.88239 | 0.23874 | 344 ft | 26 kts | 223° |
| 2026-04-23 13:45 | 51.88157 | 0.23751 | 339 ft | 22 kts | 223° |
| 2026-04-23 13:45 | 51.87997 | 0.23510 | 340 ft | 25 kts | 222° |
| 2026-04-23 13:45 | 51.87877 | 0.23329 | 337 ft | 24 kts | 223° |
| 2026-04-23 13:45 | 51.87755 | 0.23145 | 335 ft | 18 kts | 224° |
| 2026-04-23 13:46 | 51.87755 | 0.22998 | 337 ft | 15 kts | 308° |
| 2026-04-23 13:46 | 51.87768 | 0.22867 | 338 ft | 13 kts | 229° |
| 2026-04-23 13:46 | 51.87694 | 0.22755 | 335 ft | 16 kts | 223° |
| 2026-04-23 13:46 | 51.87611 | 0.22631 | 341 ft | 17 kts | 223° |
| 2026-04-23 13:47 | 51.87513 | 0.22486 | 336 ft | 19 kts | 222° |
| 2026-04-23 13:47 | 51.87431 | 0.22363 | 334 ft | 12 kts | 225° |
| 2026-04-23 13:47 | 51.87402 | 0.22236 | 335 ft | 10 kts | 281° |
| 2026-04-23 13:47 | 51.87425 | 0.22164 | 331 ft | 1 kts | 315° |
| 2026-04-23 13:48 | 51.87432 | 0.22152 | 332 ft | 2 kts | 315° |
| 2026-04-23 13:48 | 51.87456 | 0.22114 | 332 ft | 7 kts | 315° |
| 2026-04-23 13:48 | 51.87501 | 0.22043 | 332 ft | 10 kts | 315° |
| 2026-04-23 13:48 | 51.87512 | 0.22025 | 332 ft | 0 kts | 316° |
| 2026-04-23 13:49 | 51.87513 | 0.22025 | 332 ft | 0 kts | 316° |
| 2026-04-23 13:49 | 51.87523 | 0.22009 | 331 ft | 5 kts | 316° |
| 2026-04-23 13:50 | 51.87573 | 0.21956 | 332 ft | 10 kts | 339° |
| 2026-04-23 13:50 | 51.87633 | 0.21924 | 331 ft | 10 kts | 343° |
| 2026-04-23 13:50 | 51.87669 | 0.21907 | 330 ft | 0 kts | 343° |
| 2026-04-23 13:54 | 51.87670 | 0.21907 | 332 ft | 0 kts | 343° |
| 2026-04-23 13:54 | 51.87690 | 0.21904 | 331 ft | 7 kts | 4° |
| 2026-04-23 13:54 | 51.87753 | 0.21969 | 334 ft | 14 kts | 42° |
| 2026-04-23 13:55 | 51.87833 | 0.22088 | 334 ft | 17 kts | 43° |
| 2026-04-23 13:55 | 51.87913 | 0.22210 | 337 ft | 16 kts | 43° |
| 2026-04-23 13:55 | 51.88007 | 0.22351 | 337 ft | 22 kts | 43° |
| 2026-04-23 13:55 | 51.88135 | 0.22541 | 335 ft | 28 kts | 42° |
| 2026-04-23 13:56 | 51.88277 | 0.22756 | 335 ft | 28 kts | 43° |
| 2026-04-23 13:56 | 51.88379 | 0.22908 | 335 ft | 14 kts | 45° |
| 2026-04-23 13:56 | 51.88380 | 0.23052 | 332 ft | 16 kts | 114° |
| 2026-04-23 13:56 | 51.88343 | 0.23205 | 337 ft | 11 kts | 94° |
| 2026-04-23 13:57 | 51.88385 | 0.23305 | 336 ft | 12 kts | 43° |
| 2026-04-23 13:57 | 51.88528 | 0.23522 | 337 ft | 62 kts | 43° |
| 2026-04-23 13:57 | 51.89041 | 0.24291 | 345 ft | 136 kts | 43° |
| 2026-04-23 13:57 | 51.89831 | 0.25474 | 759 ft | 162 kts | 44° |
| 2026-04-23 13:58 | 51.90714 | 0.26763 | 1502 ft | 179 kts | 44° |
| 2026-04-23 13:58 | 51.91646 | 0.28139 | 2419 ft | 185 kts | 46° |
| 2026-04-23 13:58 | 51.92827 | 0.29316 | 2967 ft | 220 kts | 19° |
| 2026-04-23 13:58 | 51.94471 | 0.29420 | 3532 ft | 257 kts | 349° |
| 2026-04-23 13:59 | 51.96098 | 0.27975 | 4316 ft | 277 kts | 316° |
| 2026-04-23 13:59 | 51.97071 | 0.25269 | 4759 ft | 282 kts | 284° |
| 2026-04-23 13:59 | 51.97354 | 0.22116 | 5065 ft | 286 kts | 277° |
| 2026-04-23 13:59 | 51.97648 | 0.18942 | 6171 ft | 282 kts | 279° |
| 2026-04-23 14:00 | 51.97855 | 0.16865 | 6950 ft | 284 kts | 279° |
| 2026-04-23 14:00 | 51.98185 | 0.13659 | 7861 ft | 293 kts | 280° |
| 2026-04-23 14:00 | 51.98533 | 0.10361 | 8358 ft | 296 kts | 280° |
| 2026-04-23 14:00 | 51.98859 | 0.07065 | 8603 ft | 299 kts | 274° |
| 2026-04-23 14:01 | 51.98607 | 0.03759 | 9604 ft | 295 kts | 258° |
| 2026-04-23 14:01 | 51.98201 | 0.00457 | 10502 ft | 303 kts | 259° |
| 2026-04-23 14:01 | 51.97780 | -0.02973 | 11166 ft | 318 kts | 258° |
| 2026-04-23 14:01 | 51.97320 | -0.06614 | 11337 ft | 335 kts | 258° |
| 2026-04-23 14:02 | 51.96842 | -0.10334 | 11393 ft | 340 kts | 258° |
| 2026-04-23 14:02 | 51.96189 | -0.14011 | 11623 ft | 341 kts | 243° |
| 2026-04-23 14:02 | 51.94934 | -0.17256 | 12483 ft | 342 kts | 237° |
| 2026-04-23 14:02 | 51.93678 | -0.20565 | 13259 ft | 349 kts | 238° |
| 2026-04-23 14:03 | 51.92413 | -0.23958 | 14165 ft | 352 kts | 238° |
| 2026-04-23 14:03 | 51.91146 | -0.27381 | 14907 ft | 357 kts | 238° |
| 2026-04-23 14:03 | 51.89865 | -0.30853 | 15647 ft | 361 kts | 238° |
| 2026-04-23 14:03 | 51.88568 | -0.34370 | 16260 ft | 369 kts | 238° |
| 2026-04-23 14:04 | 51.87249 | -0.37945 | 16429 ft | 368 kts | 238° |
| 2026-04-23 14:04 | 51.85931 | -0.41485 | 16456 ft | 367 kts | 236° |
| 2026-04-23 14:04 | 51.84231 | -0.44507 | 16440 ft | 363 kts | 216° |
| 2026-04-23 14:04 | 51.82149 | -0.46813 | 16461 ft | 363 kts | 211° |
| 2026-04-23 14:05 | 51.80025 | -0.49030 | 16459 ft | 364 kts | 211° |
| 2026-04-23 14:05 | 51.77899 | -0.51255 | 16455 ft | 365 kts | 211° |
| 2026-04-23 14:05 | 51.75767 | -0.53483 | 16448 ft | 365 kts | 211° |
| 2026-04-23 14:05 | 51.73633 | -0.55714 | 16511 ft | 365 kts | 211° |
| 2026-04-23 14:06 | 51.71500 | -0.57941 | 16501 ft | 365 kts | 211° |
| 2026-04-23 14:06 | 51.69365 | -0.60169 | 16434 ft | 365 kts | 211° |
| 2026-04-23 14:06 | 51.67232 | -0.62393 | 16427 ft | 365 kts | 211° |
| 2026-04-23 14:06 | 51.65094 | -0.64622 | 16457 ft | 368 kts | 211° |
| 2026-04-23 14:07 | 51.62940 | -0.66864 | 17064 ft | 369 kts | 211° |
| 2026-04-23 14:07 | 51.58589 | -0.71378 | 18521 ft | 376 kts | 211° |
| 2026-04-23 14:07 | 51.56408 | -0.73633 | 19149 ft | 380 kts | 211° |
| 2026-04-23 14:08 | 51.54146 | -0.75969 | 19775 ft | 382 kts | 211° |
| 2026-04-23 14:08 | 51.51935 | -0.78248 | 20390 ft | 385 kts | 211° |
| 2026-04-23 14:08 | 51.49671 | -0.80576 | 20991 ft | 387 kts | 210° |
| 2026-04-23 14:08 | 51.47225 | -0.82287 | 21609 ft | 383 kts | 188° |
| 2026-04-23 14:09 | 51.44593 | -0.82332 | 22112 ft | 380 kts | 166° |
| 2026-04-23 14:09 | 51.42085 | -0.81073 | 22627 ft | 379 kts | 154° |
| 2026-04-23 14:09 | 51.39625 | -0.79476 | 23165 ft | 383 kts | 155° |
| 2026-04-23 14:09 | 51.37134 | -0.77893 | 23721 ft | 387 kts | 155° |
| 2026-04-23 14:10 | 51.34621 | -0.76307 | 24232 ft | 389 kts | 156° |
| 2026-04-23 14:10 | 51.32089 | -0.74715 | 24639 ft | 393 kts | 155° |
| 2026-04-23 14:10 | 51.29531 | -0.73106 | 25047 ft | 397 kts | 156° |
| 2026-04-23 14:10 | 51.26954 | -0.71487 | 25461 ft | 400 kts | 156° |
| 2026-04-23 14:11 | 51.24350 | -0.69855 | 25871 ft | 403 kts | 156° |
| 2026-04-23 14:11 | 51.21730 | -0.68214 | 26282 ft | 407 kts | 157° |
| 2026-04-23 14:11 | 51.19088 | -0.66562 | 26695 ft | 410 kts | 156° |
| 2026-04-23 14:11 | 51.16415 | -0.64890 | 27058 ft | 414 kts | 156° |
| 2026-04-23 14:12 | 51.13731 | -0.63217 | 27490 ft | 416 kts | 156° |
| 2026-04-23 14:12 | 51.11022 | -0.61526 | 27849 ft | 420 kts | 156° |
| 2026-04-23 14:12 | 51.08295 | -0.59828 | 28187 ft | 424 kts | 156° |
| 2026-04-23 14:12 | 51.05538 | -0.58115 | 28542 ft | 427 kts | 156° |
| 2026-04-23 14:13 | 51.02758 | -0.56391 | 28975 ft | 429 kts | 157° |
| 2026-04-23 14:13 | 50.99981 | -0.54666 | 29376 ft | 431 kts | 156° |
| 2026-04-23 14:13 | 50.97171 | -0.52923 | 29627 ft | 436 kts | 157° |
| 2026-04-23 14:13 | 50.94343 | -0.51177 | 30120 ft | 436 kts | 157° |
| 2026-04-23 14:14 | 50.91505 | -0.49419 | 30459 ft | 439 kts | 157° |
| 2026-04-23 14:14 | 50.88639 | -0.47653 | 30653 ft | 444 kts | 158° |
| 2026-04-23 14:14 | 50.85760 | -0.45876 | 30968 ft | 446 kts | 157° |
| 2026-04-23 14:14 | 50.82850 | -0.44086 | 31123 ft | 452 kts | 158° |
| 2026-04-23 14:15 | 50.79910 | -0.42279 | 31420 ft | 454 kts | 158° |
| 2026-04-23 14:15 | 50.76965 | -0.40473 | 31726 ft | 455 kts | 157° |
| 2026-04-23 14:15 | 50.74003 | -0.38654 | 31959 ft | 459 kts | 158° |
| 2026-04-23 14:15 | 50.71020 | -0.36834 | 32326 ft | 459 kts | 158° |
| 2026-04-23 14:16 | 50.68036 | -0.35003 | 32589 ft | 462 kts | 158° |
| 2026-04-23 14:16 | 50.65035 | -0.33175 | 32871 ft | 463 kts | 158° |
| 2026-04-23 14:16 | 50.62027 | -0.31336 | 33181 ft | 465 kts | 158° |
| 2026-04-23 14:16 | 50.58991 | -0.29488 | 33215 ft | 472 kts | 158° |
| 2026-04-23 14:17 | 50.55919 | -0.27622 | 33524 ft | 473 kts | 158° |
| 2026-04-23 14:17 | 50.52846 | -0.25755 | 33886 ft | 473 kts | 158° |
| 2026-04-23 14:17 | 50.49773 | -0.23889 | 34192 ft | 474 kts | 159° |
| 2026-04-23 14:17 | 50.46702 | -0.22030 | 34528 ft | 473 kts | 159° |
| 2026-04-23 14:18 | 50.43634 | -0.20173 | 34883 ft | 471 kts | 159° |
| 2026-04-23 14:18 | 50.40581 | -0.18326 | 35220 ft | 471 kts | 159° |
| 2026-04-23 14:18 | 50.37515 | -0.16478 | 35355 ft | 474 kts | 159° |
| 2026-04-23 14:18 | 50.34437 | -0.14624 | 35669 ft | 473 kts | 159° |
| 2026-04-23 14:19 | 50.31369 | -0.12778 | 36026 ft | 470 kts | 159° |
| 2026-04-23 14:19 | 50.28317 | -0.10944 | 36222 ft | 473 kts | 159° |
| 2026-04-23 14:19 | 50.25243 | -0.09102 | 36543 ft | 470 kts | 159° |
| 2026-04-23 14:19 | 50.22188 | -0.07271 | 36775 ft | 471 kts | 159° |
| 2026-04-23 14:20 | 50.16032 | -0.03594 | 37169 ft | 473 kts | 159° |
| 2026-04-23 14:20 | 50.12961 | -0.01763 | 37394 ft | 472 kts | 159° |
| 2026-04-23 14:20 | 50.09873 | -0.00011 | 37312 ft | 470 kts | 164° |
| 2026-04-23 14:21 | 50.03641 | 0.02504 | 37347 ft | 460 kts | 165° |
| 2026-04-23 14:21 | 49.97421 | 0.04962 | 37349 ft | 463 kts | 165° |
| 2026-04-23 14:22 | 49.91194 | 0.07408 | 37348 ft | 466 kts | 166° |
| 2026-04-23 14:22 | 49.84915 | 0.09868 | 37331 ft | 462 kts | 166° |
| 2026-04-23 14:23 | 49.78659 | 0.12313 | 37333 ft | 466 kts | 166° |
| 2026-04-23 14:23 | 49.72302 | 0.14790 | 37327 ft | 468 kts | 166° |
| 2026-04-23 14:24 | 49.66073 | 0.17266 | 37318 ft | 464 kts | 165° |
| 2026-04-23 14:24 | 49.59832 | 0.19782 | 37318 ft | 464 kts | 166° |
| 2026-04-23 14:25 | 49.53579 | 0.22292 | 37320 ft | 465 kts | 166° |
| 2026-04-23 14:25 | 49.47305 | 0.24804 | 37315 ft | 467 kts | 166° |
| 2026-04-23 14:26 | 49.41009 | 0.27318 | 37316 ft | 468 kts | 166° |
| 2026-04-23 14:26 | 49.34701 | 0.29830 | 37319 ft | 468 kts | 166° |
| 2026-04-23 14:27 | 49.28415 | 0.32428 | 37306 ft | 468 kts | 165° |
| 2026-04-23 14:27 | 49.22122 | 0.35085 | 37309 ft | 470 kts | 165° |
| 2026-04-23 14:28 | 49.15837 | 0.37723 | 37290 ft | 469 kts | 165° |
| 2026-04-23 14:28 | 49.09517 | 0.40370 | 37288 ft | 469 kts | 165° |
| 2026-04-23 14:29 | 49.03213 | 0.43003 | 37284 ft | 471 kts | 165° |
| 2026-04-23 14:29 | 48.96888 | 0.45638 | 37287 ft | 470 kts | 165° |
| 2026-04-23 14:30 | 48.90585 | 0.48257 | 37282 ft | 469 kts | 165° |
| 2026-04-23 14:30 | 48.84286 | 0.50867 | 37280 ft | 469 kts | 165° |
| 2026-04-23 14:31 | 48.77988 | 0.53429 | 37280 ft | 469 kts | 166° |
| 2026-04-23 14:31 | 48.71672 | 0.55908 | 37276 ft | 469 kts | 166° |
| 2026-04-23 14:32 | 48.65391 | 0.58376 | 37280 ft | 469 kts | 166° |
| 2026-04-23 14:32 | 48.59023 | 0.60871 | 37270 ft | 471 kts | 166° |
| 2026-04-23 14:33 | 48.52720 | 0.63345 | 37265 ft | 471 kts | 166° |
| 2026-04-23 14:33 | 48.46395 | 0.65924 | 37263 ft | 471 kts | 166° |
| 2026-04-23 14:34 | 48.40063 | 0.68490 | 37254 ft | 472 kts | 166° |
| 2026-04-23 14:34 | 48.33716 | 0.71054 | 37255 ft | 472 kts | 166° |
| 2026-04-23 14:35 | 48.27372 | 0.73611 | 37251 ft | 472 kts | 166° |
| 2026-04-23 14:35 | 48.21011 | 0.76126 | 37234 ft | 473 kts | 166° |
| 2026-04-23 14:36 | 48.14638 | 0.78636 | 37245 ft | 474 kts | 166° |
| 2026-04-23 14:36 | 48.08268 | 0.81139 | 37246 ft | 474 kts | 166° |
| 2026-04-23 14:37 | 48.01882 | 0.83641 | 37240 ft | 474 kts | 166° |
| 2026-04-23 14:37 | 47.95500 | 0.86136 | 37241 ft | 474 kts | 166° |
| 2026-04-23 14:38 | 47.89122 | 0.88623 | 37228 ft | 474 kts | 166° |
| 2026-04-23 14:38 | 47.82738 | 0.91105 | 37237 ft | 474 kts | 166° |
| 2026-04-23 14:39 | 47.76347 | 0.93581 | 37219 ft | 475 kts | 167° |
| 2026-04-23 14:39 | 47.69942 | 0.96057 | 37218 ft | 476 kts | 167° |
| 2026-04-23 14:40 | 47.63533 | 0.98528 | 37225 ft | 476 kts | 167° |
| 2026-04-23 14:40 | 47.57133 | 1.00989 | 37216 ft | 476 kts | 167° |
| 2026-04-23 14:41 | 47.50718 | 1.03451 | 37220 ft | 476 kts | 167° |
| 2026-04-23 14:41 | 47.44303 | 1.05885 | 37207 ft | 476 kts | 170° |
| 2026-04-23 14:42 | 47.41037 | 1.06327 | 37189 ft | 469 kts | 185° |
| 2026-04-23 14:42 | 47.37769 | 1.06233 | 37189 ft | 472 kts | 182° |
| 2026-04-23 14:42 | 47.31200 | 1.06159 | 37208 ft | 472 kts | 183° |
| 2026-04-23 14:43 | 47.24675 | 1.06015 | 37189 ft | 472 kts | 184° |
| 2026-04-23 14:43 | 47.18119 | 1.05862 | 37192 ft | 472 kts | 184° |
| 2026-04-23 14:44 | 47.11548 | 1.05709 | 37185 ft | 472 kts | 184° |
| 2026-04-23 14:44 | 47.04991 | 1.05556 | 37182 ft | 471 kts | 184° |
| 2026-04-23 14:45 | 46.98434 | 1.05294 | 37177 ft | 471 kts | 184° |
| 2026-04-23 14:45 | 46.91882 | 1.05015 | 37178 ft | 471 kts | 185° |
| 2026-04-23 14:46 | 46.86434 | 1.04786 | 37172 ft | 471 kts | 184° |
| 2026-04-23 14:46 | 46.79886 | 1.04512 | 37171 ft | 471 kts | 184° |
| 2026-04-23 14:47 | 46.73332 | 1.04238 | 37176 ft | 471 kts | 185° |
| 2026-04-23 14:47 | 46.66774 | 1.03964 | 37168 ft | 471 kts | 185° |
| 2026-04-23 14:48 | 46.60227 | 1.03692 | 37167 ft | 471 kts | 184° |
| 2026-04-23 14:48 | 46.53677 | 1.03420 | 37152 ft | 471 kts | 185° |
| 2026-04-23 14:49 | 46.47118 | 1.03329 | 37160 ft | 471 kts | 183° |
| 2026-04-23 14:49 | 46.40571 | 1.03255 | 37160 ft | 471 kts | 183° |
| 2026-04-23 14:50 | 46.34021 | 1.03177 | 37146 ft | 470 kts | 183° |
| 2026-04-23 14:50 | 46.27483 | 1.03099 | 37147 ft | 469 kts | 183° |
| 2026-04-23 14:51 | 46.20951 | 1.03021 | 37147 ft | 469 kts | 183° |
| 2026-04-23 14:51 | 46.14421 | 1.02944 | 37141 ft | 469 kts | 183° |
| 2026-04-23 14:52 | 46.07900 | 1.02866 | 37146 ft | 468 kts | 183° |
| 2026-04-23 14:52 | 46.01394 | 1.02790 | 37153 ft | 468 kts | 183° |
| 2026-04-23 14:53 | 45.94880 | 1.02713 | 37146 ft | 467 kts | 183° |
| 2026-04-23 14:53 | 45.88431 | 1.02638 | 37146 ft | 466 kts | 183° |
| 2026-04-23 14:54 | 45.81901 | 1.02605 | 37152 ft | 467 kts | 178° |
| 2026-04-23 14:54 | 45.75514 | 1.04144 | 37128 ft | 470 kts | 172° |
| 2026-04-23 14:55 | 45.69089 | 1.05781 | 37132 ft | 469 kts | 172° |
| 2026-04-23 14:55 | 45.62658 | 1.07431 | 37125 ft | 469 kts | 172° |
| 2026-04-23 14:56 | 45.56240 | 1.09074 | 37117 ft | 469 kts | 172° |
| 2026-04-23 14:56 | 45.49823 | 1.10714 | 37141 ft | 468 kts | 172° |
| 2026-04-23 14:57 | 45.43409 | 1.12350 | 37132 ft | 468 kts | 172° |
| 2026-04-23 14:57 | 45.37001 | 1.13980 | 37123 ft | 468 kts | 172° |
| 2026-04-23 14:58 | 45.30592 | 1.15607 | 37135 ft | 468 kts | 172° |
| 2026-04-23 14:58 | 45.24175 | 1.17231 | 37137 ft | 471 kts | 172° |
| 2026-04-23 14:59 | 45.17713 | 1.18826 | 37124 ft | 470 kts | 176° |
| 2026-04-23 14:59 | 45.14488 | 1.18759 | 37136 ft | 460 kts | 192° |
| 2026-04-23 14:59 | 45.11330 | 1.18011 | 37122 ft | 462 kts | 192° |
| 2026-04-23 15:00 | 45.04997 | 1.16490 | 37147 ft | 461 kts | 193° |
| 2026-04-23 15:00 | 44.98670 | 1.14885 | 37100 ft | 462 kts | 193° |
| 2026-04-23 15:01 | 44.92368 | 1.13275 | 37122 ft | 459 kts | 193° |
| 2026-04-23 15:01 | 44.86091 | 1.11673 | 37122 ft | 458 kts | 193° |
| 2026-04-23 15:02 | 44.79814 | 1.10074 | 37123 ft | 458 kts | 193° |
| 2026-04-23 15:02 | 44.73542 | 1.08480 | 37117 ft | 458 kts | 193° |
| 2026-04-23 15:03 | 44.67267 | 1.06890 | 37107 ft | 458 kts | 193° |
| 2026-04-23 15:03 | 44.60986 | 1.05301 | 37105 ft | 459 kts | 193° |
| 2026-04-23 15:04 | 44.54707 | 1.03715 | 37105 ft | 458 kts | 193° |
| 2026-04-23 15:04 | 44.48426 | 1.02133 | 37106 ft | 458 kts | 193° |
| 2026-04-23 15:05 | 44.42154 | 1.00557 | 37108 ft | 458 kts | 193° |
| 2026-04-23 15:05 | 44.35882 | 0.98984 | 37108 ft | 457 kts | 193° |
| 2026-04-23 15:06 | 44.29619 | 0.97417 | 37102 ft | 457 kts | 193° |
| 2026-04-23 15:06 | 44.23349 | 0.95852 | 37106 ft | 457 kts | 193° |
| 2026-04-23 15:07 | 44.17092 | 0.94293 | 37108 ft | 457 kts | 193° |
| 2026-04-23 15:07 | 44.10834 | 0.92737 | 37105 ft | 457 kts | 193° |
| 2026-04-23 15:08 | 44.04581 | 0.91186 | 37100 ft | 457 kts | 193° |
| 2026-04-23 15:09 | 43.95205 | 0.88865 | 37099 ft | 455 kts | 193° |
| 2026-04-23 15:09 | 43.88972 | 0.87309 | 37101 ft | 455 kts | 194° |
| 2026-04-23 15:10 | 43.83809 | 0.85913 | 37101 ft | 455 kts | 194° |
| 2026-04-23 15:10 | 43.76549 | 0.83970 | 37099 ft | 454 kts | 194° |
| 2026-04-23 15:11 | 43.70335 | 0.82313 | 37097 ft | 454 kts | 194° |
| 2026-04-23 15:11 | 43.64130 | 0.80662 | 37101 ft | 454 kts | 194° |
| 2026-04-23 15:12 | 43.57926 | 0.79013 | 37096 ft | 453 kts | 194° |
| 2026-04-23 15:12 | 43.51732 | 0.77372 | 37102 ft | 453 kts | 194° |
| 2026-04-23 15:13 | 43.45535 | 0.75733 | 37086 ft | 452 kts | 194° |
| 2026-04-23 15:13 | 43.39422 | 0.74120 | 37082 ft | 450 kts | 194° |
| 2026-04-23 15:14 | 43.33275 | 0.72500 | 37091 ft | 450 kts | 194° |
| 2026-04-23 15:14 | 43.27119 | 0.70883 | 37084 ft | 450 kts | 194° |
| 2026-04-23 15:15 | 43.20977 | 0.69271 | 37075 ft | 450 kts | 194° |
| 2026-04-23 15:15 | 43.14842 | 0.67665 | 37088 ft | 449 kts | 194° |
| 2026-04-23 15:16 | 43.08708 | 0.66063 | 37094 ft | 449 kts | 194° |
| 2026-04-23 15:16 | 43.02565 | 0.64462 | 37097 ft | 449 kts | 194° |
| 2026-04-23 15:17 | 42.96431 | 0.62865 | 37098 ft | 449 kts | 194° |
| 2026-04-23 15:17 | 42.90275 | 0.61267 | 37107 ft | 450 kts | 194° |
| 2026-04-23 15:18 | 42.84143 | 0.59678 | 37117 ft | 449 kts | 194° |
| 2026-04-23 15:18 | 42.77987 | 0.58086 | 37113 ft | 449 kts | 194° |
| 2026-04-23 15:19 | 42.71854 | 0.56502 | 37168 ft | 450 kts | 194° |
| 2026-04-23 15:19 | 42.65709 | 0.54919 | 37139 ft | 449 kts | 194° |
| 2026-04-23 15:20 | 42.60598 | 0.53605 | 37146 ft | 450 kts | 194° |
| 2026-04-23 15:20 | 42.53418 | 0.51762 | 37141 ft | 449 kts | 194° |
| 2026-04-23 15:21 | 42.47280 | 0.50190 | 37147 ft | 449 kts | 194° |
| 2026-04-23 15:21 | 42.41134 | 0.48619 | 37159 ft | 449 kts | 194° |
| 2026-04-23 15:22 | 42.35007 | 0.47055 | 37153 ft | 448 kts | 194° |
| 2026-04-23 15:22 | 42.28882 | 0.45493 | 37140 ft | 447 kts | 194° |
| 2026-04-23 15:23 | 42.22806 | 0.43948 | 37134 ft | 448 kts | 194° |
| 2026-04-23 15:23 | 42.16683 | 0.42393 | 37143 ft | 447 kts | 194° |
| 2026-04-23 15:24 | 42.10573 | 0.40845 | 37137 ft | 446 kts | 194° |
| 2026-04-23 15:24 | 42.04467 | 0.39301 | 37125 ft | 447 kts | 194° |
| 2026-04-23 15:25 | 41.98361 | 0.37760 | 37112 ft | 446 kts | 194° |
| 2026-04-23 15:25 | 41.93284 | 0.36481 | 37127 ft | 442 kts | 194° |
| 2026-04-23 15:26 | 41.86259 | 0.34716 | 37133 ft | 442 kts | 194° |
| 2026-04-23 15:26 | 41.80205 | 0.33198 | 37122 ft | 442 kts | 194° |
| 2026-04-23 15:27 | 41.74164 | 0.31685 | 37127 ft | 442 kts | 194° |
| 2026-04-23 15:27 | 41.68122 | 0.30176 | 37125 ft | 441 kts | 194° |
| 2026-04-23 15:28 | 41.62089 | 0.28671 | 37127 ft | 441 kts | 194° |
| 2026-04-23 15:28 | 41.56056 | 0.27170 | 37121 ft | 441 kts | 194° |
| 2026-04-23 15:29 | 41.50025 | 0.25671 | 37123 ft | 441 kts | 194° |
| 2026-04-23 15:29 | 41.43992 | 0.24176 | 37125 ft | 441 kts | 194° |
| 2026-04-23 15:30 | 41.37971 | 0.22685 | 37120 ft | 441 kts | 194° |
| 2026-04-23 15:30 | 41.31943 | 0.21197 | 37123 ft | 440 kts | 194° |
| 2026-04-23 15:31 | 41.25927 | 0.19713 | 37128 ft | 439 kts | 194° |
| 2026-04-23 15:31 | 41.20935 | 0.18484 | 37125 ft | 439 kts | 194° |
| 2026-04-23 15:32 | 41.13906 | 0.16753 | 37130 ft | 439 kts | 195° |
| 2026-04-23 15:32 | 41.09054 | 0.14924 | 37140 ft | 436 kts | 200° |
| 2026-04-23 15:33 | 41.03250 | 0.12601 | 37114 ft | 436 kts | 200° |
| 2026-04-23 15:33 | 40.96503 | 0.09884 | 37122 ft | 436 kts | 200° |
| 2026-04-23 15:34 | 40.91644 | 0.07930 | 37127 ft | 436 kts | 200° |
| 2026-04-23 15:34 | 40.85848 | 0.05602 | 37115 ft | 435 kts | 200° |
| 2026-04-23 15:35 | 40.80050 | 0.03279 | 37133 ft | 436 kts | 200° |
| 2026-04-23 15:35 | 40.74252 | 0.00960 | 37139 ft | 435 kts | 200° |
| 2026-04-23 15:36 | 40.68496 | -0.01337 | 37134 ft | 435 kts | 200° |
| 2026-04-23 15:36 | 40.62719 | -0.03641 | 37133 ft | 434 kts | 200° |
| 2026-04-23 15:37 | 40.56939 | -0.05940 | 37115 ft | 434 kts | 200° |
| 2026-04-23 15:37 | 40.51156 | -0.08236 | 37097 ft | 434 kts | 200° |
| 2026-04-23 15:38 | 40.45377 | -0.10527 | 37056 ft | 434 kts | 200° |
| 2026-04-23 15:38 | 40.39599 | -0.12814 | 37046 ft | 434 kts | 200° |
| 2026-04-23 15:39 | 40.33823 | -0.15096 | 37036 ft | 434 kts | 200° |
| 2026-04-23 15:39 | 40.28042 | -0.17376 | 37025 ft | 434 kts | 200° |
| 2026-04-23 15:40 | 40.22262 | -0.19651 | 37043 ft | 433 kts | 199° |
| 2026-04-23 15:40 | 40.16489 | -0.21919 | 37066 ft | 433 kts | 199° |
| 2026-04-23 15:41 | 40.10717 | -0.24182 | 37093 ft | 433 kts | 199° |
| 2026-04-23 15:41 | 40.04941 | -0.26444 | 37160 ft | 433 kts | 199° |
| 2026-04-23 15:42 | 39.99169 | -0.28699 | 37145 ft | 433 kts | 200° |
| 2026-04-23 15:42 | 39.93396 | -0.30949 | 37150 ft | 433 kts | 199° |
| 2026-04-23 15:43 | 39.87628 | -0.33195 | 37159 ft | 433 kts | 200° |
| 2026-04-23 15:43 | 39.81850 | -0.35441 | 37141 ft | 433 kts | 200° |
| 2026-04-23 15:44 | 39.76119 | -0.37665 | 37128 ft | 432 kts | 200° |
| 2026-04-23 15:44 | 39.70322 | -0.39912 | 37130 ft | 432 kts | 200° |
| 2026-04-23 15:45 | 39.64561 | -0.42139 | 37129 ft | 432 kts | 199° |
| 2026-04-23 15:45 | 39.58804 | -0.44362 | 37131 ft | 432 kts | 200° |
| 2026-04-23 15:46 | 39.53048 | -0.46580 | 37131 ft | 432 kts | 199° |
| 2026-04-23 15:46 | 39.47411 | -0.49117 | 37119 ft | 425 kts | 212° |
| 2026-04-23 15:47 | 39.42191 | -0.52766 | 37123 ft | 427 kts | 211° |
| 2026-04-23 15:47 | 39.36984 | -0.56379 | 37137 ft | 427 kts | 211° |
| 2026-04-23 15:48 | 39.31754 | -0.60013 | 37142 ft | 427 kts | 211° |
| 2026-04-23 15:48 | 39.26522 | -0.63644 | 37136 ft | 427 kts | 211° |
| 2026-04-23 15:49 | 39.21295 | -0.67266 | 37133 ft | 427 kts | 211° |
| 2026-04-23 15:49 | 39.16025 | -0.70910 | 37125 ft | 427 kts | 211° |
| 2026-04-23 15:50 | 39.10833 | -0.74495 | 37121 ft | 427 kts | 211° |
| 2026-04-23 15:50 | 39.05604 | -0.78098 | 37132 ft | 424 kts | 210° |
| 2026-04-23 15:51 | 39.00410 | -0.81672 | 37127 ft | 422 kts | 211° |
| 2026-04-23 15:51 | 38.95231 | -0.85230 | 37123 ft | 423 kts | 211° |
| 2026-04-23 15:52 | 38.90048 | -0.88784 | 37102 ft | 422 kts | 210° |
| 2026-04-23 15:52 | 38.84856 | -0.92339 | 37107 ft | 423 kts | 211° |
| 2026-04-23 15:53 | 38.79660 | -0.95890 | 37099 ft | 424 kts | 211° |
| 2026-04-23 15:53 | 38.74465 | -0.99435 | 37079 ft | 423 kts | 211° |
| 2026-04-23 15:54 | 38.69255 | -1.02983 | 37086 ft | 424 kts | 211° |
| 2026-04-23 15:54 | 38.64055 | -1.06519 | 37066 ft | 424 kts | 210° |
| 2026-04-23 15:55 | 38.58831 | -1.10067 | 37066 ft | 425 kts | 210° |
| 2026-04-23 15:55 | 38.53604 | -1.13610 | 37070 ft | 425 kts | 210° |
| 2026-04-23 15:56 | 38.48379 | -1.17146 | 37074 ft | 424 kts | 210° |
| 2026-04-23 15:56 | 38.43182 | -1.20657 | 37068 ft | 424 kts | 210° |
| 2026-04-23 15:57 | 38.37959 | -1.24180 | 37061 ft | 424 kts | 210° |
| 2026-04-23 15:57 | 38.32748 | -1.27689 | 37057 ft | 424 kts | 210° |
| 2026-04-23 15:58 | 38.27532 | -1.31196 | 37050 ft | 424 kts | 210° |
| 2026-04-23 15:58 | 38.22350 | -1.34674 | 37046 ft | 424 kts | 210° |
| 2026-04-23 15:59 | 38.17171 | -1.38143 | 36904 ft | 412 kts | 210° |
| 2026-04-23 15:59 | 38.14669 | -1.39818 | 36713 ft | 401 kts | 209° |
| 2026-04-23 15:59 | 38.12221 | -1.41456 | 36319 ft | 396 kts | 210° |
| 2026-04-23 15:59 | 38.09792 | -1.43079 | 35839 ft | 393 kts | 210° |
| 2026-04-23 16:00 | 38.07369 | -1.44697 | 35318 ft | 392 kts | 209° |
| 2026-04-23 16:00 | 38.04961 | -1.46305 | 34847 ft | 390 kts | 210° |
| 2026-04-23 16:00 | 38.02567 | -1.47900 | 34387 ft | 388 kts | 209° |
| 2026-04-23 16:00 | 38.00185 | -1.49487 | 33899 ft | 386 kts | 209° |
| 2026-04-23 16:01 | 37.97811 | -1.51067 | 33380 ft | 385 kts | 209° |
| 2026-04-23 16:01 | 37.95446 | -1.52642 | 32906 ft | 382 kts | 209° |
| 2026-04-23 16:01 | 37.93102 | -1.54201 | 32453 ft | 379 kts | 208° |
| 2026-04-23 16:01 | 37.90766 | -1.55745 | 32004 ft | 377 kts | 208° |
| 2026-04-23 16:02 | 37.88439 | -1.57258 | 31510 ft | 376 kts | 208° |
| 2026-04-23 16:02 | 37.86126 | -1.58763 | 31071 ft | 373 kts | 208° |
| 2026-04-23 16:02 | 37.83820 | -1.60264 | 30694 ft | 370 kts | 208° |
| 2026-04-23 16:02 | 37.81541 | -1.61748 | 30289 ft | 368 kts | 208° |
| 2026-04-23 16:03 | 37.79270 | -1.63225 | 29835 ft | 366 kts | 208° |
| 2026-04-23 16:03 | 37.77013 | -1.64691 | 29376 ft | 363 kts | 208° |
| 2026-04-23 16:03 | 37.74776 | -1.66143 | 28973 ft | 360 kts | 208° |
| 2026-04-23 16:03 | 37.72560 | -1.67582 | 28592 ft | 356 kts | 207° |
| 2026-04-23 16:04 | 37.70364 | -1.69006 | 28198 ft | 353 kts | 207° |
| 2026-04-23 16:04 | 37.68192 | -1.70413 | 27818 ft | 350 kts | 208° |
| 2026-04-23 16:04 | 37.66038 | -1.71807 | 27447 ft | 347 kts | 207° |
| 2026-04-23 16:04 | 37.63902 | -1.73190 | 27082 ft | 344 kts | 207° |
| 2026-04-23 16:05 | 37.62493 | -1.74102 | 26842 ft | 342 kts | 207° |
| 2026-04-23 16:05 | 37.59684 | -1.75918 | 26354 ft | 338 kts | 207° |
| 2026-04-23 16:05 | 37.57595 | -1.77267 | 25992 ft | 336 kts | 207° |
| 2026-04-23 16:05 | 37.55527 | -1.78602 | 25647 ft | 333 kts | 207° |
| 2026-04-23 16:06 | 37.53469 | -1.79929 | 25316 ft | 330 kts | 207° |
| 2026-04-23 16:06 | 37.51433 | -1.81242 | 24966 ft | 328 kts | 207° |
| 2026-04-23 16:06 | 37.49405 | -1.82549 | 24619 ft | 326 kts | 207° |
| 2026-04-23 16:06 | 37.47394 | -1.83844 | 24295 ft | 324 kts | 207° |
| 2026-04-23 16:07 | 37.45390 | -1.85133 | 23959 ft | 322 kts | 207° |
| 2026-04-23 16:07 | 37.43400 | -1.86413 | 23622 ft | 321 kts | 207° |
| 2026-04-23 16:07 | 37.41422 | -1.87685 | 23233 ft | 319 kts | 207° |
| 2026-04-23 16:07 | 37.39452 | -1.88951 | 22877 ft | 316 kts | 207° |
| 2026-04-23 16:08 | 37.37530 | -1.90185 | 22549 ft | 313 kts | 207° |
| 2026-04-23 16:08 | 37.35604 | -1.91421 | 22241 ft | 309 kts | 206° |
| 2026-04-23 16:08 | 37.33694 | -1.92645 | 21916 ft | 306 kts | 206° |
| 2026-04-23 16:08 | 37.31808 | -1.93854 | 21600 ft | 305 kts | 206° |
| 2026-04-23 16:09 | 37.29898 | -1.95078 | 21286 ft | 311 kts | 206° |
| 2026-04-23 16:09 | 37.27959 | -1.96320 | 20958 ft | 313 kts | 206° |
| 2026-04-23 16:09 | 37.26035 | -1.97591 | 20621 ft | 313 kts | 212° |
| 2026-04-23 16:09 | 37.24459 | -1.99455 | 20214 ft | 316 kts | 233° |
| 2026-04-23 16:10 | 37.23429 | -2.01889 | 19912 ft | 314 kts | 241° |
| 2026-04-23 16:10 | 37.22488 | -2.04346 | 19603 ft | 312 kts | 242° |
| 2026-04-23 16:10 | 37.21570 | -2.06794 | 19284 ft | 309 kts | 241° |
| 2026-04-23 16:10 | 37.20664 | -2.09240 | 18965 ft | 307 kts | 241° |
| 2026-04-23 16:11 | 37.19775 | -2.11661 | 18627 ft | 306 kts | 242° |
| 2026-04-23 16:11 | 37.18893 | -2.14076 | 18334 ft | 303 kts | 242° |
| 2026-04-23 16:11 | 37.18022 | -2.16467 | 17988 ft | 301 kts | 242° |
| 2026-04-23 16:11 | 37.17156 | -2.18844 | 17664 ft | 299 kts | 241° |
| 2026-04-23 16:12 | 37.16293 | -2.21214 | 17338 ft | 296 kts | 242° |
| 2026-04-23 16:12 | 37.15444 | -2.23545 | 17034 ft | 292 kts | 242° |
| 2026-04-23 16:12 | 37.14601 | -2.25854 | 16722 ft | 290 kts | 241° |
| 2026-04-23 16:12 | 37.13766 | -2.28142 | 16417 ft | 288 kts | 242° |
| 2026-04-23 16:13 | 37.12937 | -2.30411 | 16118 ft | 286 kts | 242° |
| 2026-04-23 16:13 | 37.11253 | -2.35014 | 15490 ft | 295 kts | 242° |
| 2026-04-23 16:13 | 37.10398 | -2.37350 | 15191 ft | 295 kts | 242° |
| 2026-04-23 16:14 | 37.09543 | -2.39684 | 14879 ft | 293 kts | 242° |
| 2026-04-23 16:14 | 37.08696 | -2.41992 | 14573 ft | 291 kts | 242° |
| 2026-04-23 16:14 | 37.07852 | -2.44293 | 14277 ft | 290 kts | 242° |
| 2026-04-23 16:14 | 37.07013 | -2.46578 | 13969 ft | 288 kts | 242° |
| 2026-04-23 16:15 | 37.06174 | -2.48859 | 13652 ft | 287 kts | 242° |
| 2026-04-23 16:15 | 37.05342 | -2.51120 | 13327 ft | 285 kts | 242° |
| 2026-04-23 16:15 | 37.04514 | -2.53372 | 13012 ft | 283 kts | 242° |
| 2026-04-23 16:15 | 37.03692 | -2.55604 | 12707 ft | 281 kts | 242° |
| 2026-04-23 16:16 | 37.02878 | -2.57812 | 12415 ft | 279 kts | 242° |
| 2026-04-23 16:16 | 37.02064 | -2.60018 | 12103 ft | 278 kts | 242° |
| 2026-04-23 16:16 | 37.01259 | -2.62200 | 11836 ft | 275 kts | 242° |
| 2026-04-23 16:16 | 37.00459 | -2.64363 | 11565 ft | 272 kts | 242° |
| 2026-04-23 16:17 | 36.99667 | -2.66506 | 11283 ft | 271 kts | 242° |
| 2026-04-23 16:17 | 36.98880 | -2.68634 | 10996 ft | 269 kts | 241° |
| 2026-04-23 16:17 | 36.98083 | -2.70779 | 10704 ft | 275 kts | 242° |
| 2026-04-23 16:17 | 36.97278 | -2.72956 | 10450 ft | 276 kts | 242° |
| 2026-04-23 16:18 | 36.96465 | -2.75141 | 10178 ft | 278 kts | 241° |
| 2026-04-23 16:18 | 36.95345 | -2.77015 | 9882 ft | 272 kts | 218° |
| 2026-04-23 16:18 | 36.93676 | -2.78071 | 9526 ft | 270 kts | 192° |
| 2026-04-23 16:18 | 36.91803 | -2.78145 | 9243 ft | 266 kts | 170° |
| 2026-04-23 16:19 | 36.90017 | -2.77592 | 9000 ft | 263 kts | 165° |
| 2026-04-23 16:19 | 36.88286 | -2.76994 | 8712 ft | 261 kts | 165° |
| 2026-04-23 16:19 | 36.86539 | -2.76367 | 8414 ft | 263 kts | 165° |
| 2026-04-23 16:19 | 36.85337 | -2.75926 | 7999 ft | 271 kts | 164° |
| 2026-04-23 16:20 | 36.83514 | -2.75248 | 7369 ft | 274 kts | 163° |
| 2026-04-23 16:20 | 36.81685 | -2.74562 | 6851 ft | 272 kts | 163° |
| 2026-04-23 16:20 | 36.79356 | -2.73680 | 6191 ft | 258 kts | 162° |
| 2026-04-23 16:20 | 36.78214 | -2.73209 | 5835 ft | 251 kts | 155° |
| 2026-04-23 16:21 | 36.76928 | -2.71861 | 5400 ft | 240 kts | 120° |
| 2026-04-23 16:21 | 36.76489 | -2.69929 | 5075 ft | 230 kts | 88° |
| 2026-04-23 16:21 | 36.76793 | -2.68024 | 4818 ft | 220 kts | 73° |
| 2026-04-23 16:21 | 36.77208 | -2.66265 | 4558 ft | 213 kts | 72° |
| 2026-04-23 16:22 | 36.77624 | -2.64525 | 4279 ft | 207 kts | 72° |
| 2026-04-23 16:22 | 36.78032 | -2.62838 | 4018 ft | 200 kts | 71° |
| 2026-04-23 16:22 | 36.78429 | -2.61210 | 3751 ft | 196 kts | 70° |
| 2026-04-23 16:22 | 36.78824 | -2.59607 | 3484 ft | 191 kts | 70° |
| 2026-04-23 16:23 | 36.79210 | -2.58043 | 3210 ft | 187 kts | 70° |
| 2026-04-23 16:23 | 36.79587 | -2.56515 | 2960 ft | 180 kts | 69° |
| 2026-04-23 16:23 | 36.79948 | -2.55052 | 2725 ft | 173 kts | 70° |
| 2026-04-23 16:23 | 36.80297 | -2.53641 | 2476 ft | 166 kts | 70° |
| 2026-04-23 16:24 | 36.80616 | -2.52349 | 2326 ft | 147 kts | 70° |
| 2026-04-23 16:24 | 36.80915 | -2.51140 | 2154 ft | 144 kts | 71° |
| 2026-04-23 16:24 | 36.81205 | -2.49962 | 1943 ft | 141 kts | 70° |
| 2026-04-23 16:24 | 36.81483 | -2.48841 | 1793 ft | 129 kts | 71° |
| 2026-04-23 16:25 | 36.81747 | -2.47770 | 1640 ft | 131 kts | 72° |
| 2026-04-23 16:25 | 36.82011 | -2.46695 | 1422 ft | 132 kts | 72° |
| 2026-04-23 16:25 | 36.82274 | -2.45624 | 1243 ft | 133 kts | 72° |
| 2026-04-23 16:25 | 36.82554 | -2.44493 | 1052 ft | 134 kts | 74° |
| 2026-04-23 16:26 | 36.82841 | -2.43423 | 883 ft | 129 kts | 75° |
| 2026-04-23 16:26 | 36.83081 | -2.42325 | 696 ft | 133 kts | 76° |
| 2026-04-23 16:26 | 36.83296 | -2.41206 | 542 ft | 136 kts | 73° |
| 2026-04-23 16:26 | 36.83603 | -2.40059 | 390 ft | 134 kts | 69° |
| 2026-04-23 16:27 | 36.83904 | -2.39007 | 163 ft | 131 kts | 72° |
| 2026-04-23 16:27 | 36.84162 | -2.37970 | 70 ft | 114 kts | 71° |
| 2026-04-23 16:27 | 36.84352 | -2.37233 | 58 ft | 57 kts | 72° |
| 2026-04-23 16:27 | 36.84450 | -2.36816 | 59 ft | 48 kts | 74° |
| 2026-04-23 16:28 | 36.84539 | -2.36439 | 59 ft | 43 kts | 73° |
| 2026-04-23 16:28 | 36.84624 | -2.36094 | 65 ft | 40 kts | 72° |
| 2026-04-23 16:28 | 36.84705 | -2.35775 | 62 ft | 37 kts | 72° |
| 2026-04-23 16:28 | 36.84778 | -2.35479 | 61 ft | 23 kts | 72° |
| 2026-04-23 16:29 | 36.84817 | -2.35354 | 58 ft | 13 kts | 47° |
| 2026-04-23 16:29 | 36.84908 | -2.35336 | 67 ft | 15 kts | 332° |
| 2026-04-23 16:29 | 36.84947 | -2.35471 | 68 ft | 21 kts | 254° |
| 2026-04-23 16:29 | 36.84896 | -2.35674 | 65 ft | 26 kts | 253° |
| 2026-04-23 16:30 | 36.84840 | -2.35903 | 64 ft | 29 kts | 253° |
| 2026-04-23 16:30 | 36.84788 | -2.36114 | 65 ft | 26 kts | 253° |
| 2026-04-23 16:30 | 36.84733 | -2.36336 | 61 ft | 28 kts | 253° |
| 2026-04-23 16:30 | 36.84682 | -2.36546 | 64 ft | 22 kts | 253° |
| 2026-04-23 16:31 | 36.84635 | -2.36743 | 63 ft | 25 kts | 253° |
| 2026-04-23 16:31 | 36.84613 | -2.36864 | 65 ft | 13 kts | 276° |
| 2026-04-23 16:31 | 36.84651 | -2.36960 | 62 ft | 12 kts | 285° |
| 2026-04-23 16:31 | 36.84631 | -2.37067 | 68 ft | 14 kts | 252° |
| 2026-04-23 16:32 | 36.84599 | -2.37196 | 70 ft | 17 kts | 252° |
| 2026-04-23 16:32 | 36.84574 | -2.37298 | 68 ft | 7 kts | 255° |
| 2026-04-23 16:32 | 36.84595 | -2.37346 | 69 ft | 5 kts | 338° |
| 2026-04-23 16:32 | 36.84629 | -2.37359 | 72 ft | 4 kts | 356° |
| 2026-04-23 16:33 | 36.84637 | -2.37350 | 72 ft | 1 kts | 68° |
| 2026-04-23 16:33 | 36.84634 | -2.37341 | 65 ft | 3 kts | 115° |
| 2026-04-23 16:33 | 36.84631 | -2.37335 | 66 ft | 0 kts | 115° |